createdAt,value
2017-02-21T00:00:44.976Z,1000.51
2017-02-21T00:01:44.913Z,1000.47
2017-02-21T00:02:44.852Z,1000.51
2017-02-21T00:03:44.789Z,1000.54
2017-02-21T00:04:44.727Z,1000.54
2017-02-21T00:05:44.815Z,1000.51
2017-02-21T00:06:44.604Z,1000.53
2017-02-21T00:07:44.541Z,1000.52
2017-02-21T00:08:44.481Z,1000.52
2017-02-21T00:09:44.417Z,1000.57
2017-02-21T00:10:44.355Z,1000.53
2017-02-21T00:11:44.292Z,1000.6
2017-02-21T00:12:44.230Z,1000.59
2017-02-21T00:13:44.169Z,1000.6
2017-02-21T00:14:44.106Z,1000.6
2017-02-21T00:15:44.044Z,1000.58
2017-02-21T00:16:43.982Z,1000.58
2017-02-21T00:17:43.920Z,1000.56
2017-02-21T00:18:43.857Z,1000.56
2017-02-21T00:19:43.795Z,1000.51
2017-02-21T00:20:43.733Z,1000.51
2017-02-21T00:21:43.671Z,1000.57
2017-02-21T00:22:43.608Z,1000.47
2017-02-21T00:23:43.547Z,1000.57
2017-02-21T00:24:43.485Z,1000.55
2017-02-21T00:25:43.421Z,1000.54
2017-02-21T00:26:43.361Z,1000.54
2017-02-21T00:27:43.298Z,1000.54
2017-02-21T00:28:43.236Z,1000.5
2017-02-21T00:29:43.175Z,1000.55
2017-02-21T00:30:43.361Z,1000.57
2017-02-21T00:31:43.048Z,1000.52
2017-02-21T00:32:42.987Z,1000.54
2017-02-21T00:33:42.925Z,1000.53
2017-02-21T00:34:42.863Z,1000.57
2017-02-21T00:35:42.805Z,1000.48
2017-02-21T00:36:42.739Z,1000.5
2017-02-21T00:37:42.677Z,1000.52
2017-02-21T00:38:42.615Z,1000.52
2017-02-21T00:39:42.553Z,1000.46
2017-02-21T00:40:42.491Z,1000.47
2017-02-21T00:41:42.430Z,1000.48
2017-02-21T00:42:42.367Z,1000.44
2017-02-21T00:43:42.305Z,1000.47
2017-02-21T00:44:42.242Z,1000.46
2017-02-21T00:45:42.181Z,1000.48
2017-02-21T00:46:42.119Z,1000.52
2017-02-21T00:47:42.055Z,1000.54
2017-02-21T00:48:41.997Z,1000.57
2017-02-21T00:49:41.968Z,1000.63
2017-02-21T00:50:41.870Z,1000.61
2017-02-21T00:51:41.808Z,1000.57
2017-02-21T00:52:41.746Z,1000.62
2017-02-21T00:53:41.684Z,1000.61
2017-02-21T00:54:41.621Z,1000.63
2017-02-21T00:55:41.559Z,1000.59
2017-02-21T00:56:41.498Z,1000.61
2017-02-21T00:57:41.436Z,1000.6
2017-02-21T00:58:41.374Z,1000.62
2017-02-21T00:59:41.312Z,1000.65
2017-02-21T01:01:11.218Z,1000.66
2017-02-21T01:02:11.099Z,1000.62
2017-02-21T01:03:11.037Z,1000.64
2017-02-21T01:04:10.975Z,1000.64
2017-02-21T01:05:10.912Z,1000.66
2017-02-21T01:06:10.851Z,1000.65
2017-02-21T01:07:10.790Z,1000.66
2017-02-21T01:08:10.727Z,1000.65
2017-02-21T01:09:10.663Z,1000.63
2017-02-21T01:10:10.851Z,1000.65
2017-02-21T01:11:10.538Z,1000.62
2017-02-21T01:12:10.476Z,1000.63
2017-02-21T01:13:10.416Z,1000.63
2017-02-21T01:14:10.353Z,1000.61
2017-02-21T01:15:10.291Z,1000.69
2017-02-21T01:16:10.227Z,1000.67
2017-02-21T01:17:10.165Z,1000.67
2017-02-21T01:18:10.104Z,1000.64
2017-02-21T01:19:10.045Z,1000.66
2017-02-21T01:20:09.979Z,1000.58
2017-02-21T01:21:09.917Z,1000.54
2017-02-21T01:22:09.853Z,1000.51
2017-02-21T01:23:09.792Z,1000.52
2017-02-21T01:24:09.729Z,1000.57
2017-02-21T01:25:09.668Z,1000.48
2017-02-21T01:26:09.606Z,1000.51
2017-02-21T01:27:09.543Z,1000.5
2017-02-21T01:28:09.484Z,1000.48
2017-02-21T01:29:09.419Z,1000.59
2017-02-21T01:30:09.355Z,1000.57
2017-02-21T01:31:09.295Z,1000.66
2017-02-21T01:32:09.232Z,1000.6
2017-02-21T01:33:09.171Z,1000.65
2017-02-21T01:34:09.108Z,1000.66
2017-02-21T01:35:09.045Z,1000.68
2017-02-21T01:36:08.985Z,1000.72
2017-02-21T01:37:08.921Z,1000.72
2017-02-21T01:38:08.859Z,1000.75
2017-02-21T01:39:08.797Z,1000.72
2017-02-21T01:40:08.736Z,1000.78
2017-02-21T01:41:08.674Z,1000.76
2017-02-21T01:42:08.610Z,1000.83
2017-02-21T01:43:08.564Z,1000.82
2017-02-21T01:44:08.485Z,1000.8
2017-02-21T01:45:08.423Z,1000.78
2017-02-21T01:46:08.361Z,1000.83
2017-02-21T01:47:08.298Z,1000.82
2017-02-21T01:48:08.236Z,1000.83
2017-02-21T01:49:08.175Z,1000.85
2017-02-21T01:50:08.363Z,1000.82
2017-02-21T01:51:08.052Z,1000.87
2017-02-21T01:52:07.988Z,1000.82
2017-02-21T01:53:07.925Z,1000.87
2017-02-21T01:54:07.864Z,1000.94
2017-02-21T01:55:07.806Z,1000.93
2017-02-21T01:56:07.741Z,1001.02
2017-02-21T01:57:07.677Z,1001.02
2017-02-21T01:58:07.616Z,1000.95
2017-02-21T01:59:07.554Z,1000.95
2017-02-21T02:00:07.498Z,1000.95
2017-02-21T02:01:07.428Z,1001.01
2017-02-21T02:02:07.366Z,1001.01
2017-02-21T02:03:07.305Z,1000.94
2017-02-21T02:04:07.241Z,1000.94
2017-02-21T02:05:07.181Z,1000.86
2017-02-21T02:06:07.118Z,1000.82
2017-02-21T02:07:07.055Z,1000.73
2017-02-21T02:08:06.997Z,1000.77
2017-02-21T02:09:06.931Z,1000.79
2017-02-21T02:10:06.868Z,1000.8
2017-02-21T02:11:06.806Z,1000.76
2017-02-21T02:12:06.744Z,1000.75
2017-02-21T02:13:06.683Z,1000.76
2017-02-21T02:14:06.620Z,1000.79
2017-02-21T02:15:06.557Z,1000.73
2017-02-21T02:16:06.497Z,1000.71
2017-02-21T02:17:06.433Z,1000.75
2017-02-21T02:18:06.370Z,1000.73
2017-02-21T02:19:06.310Z,1000.75
2017-02-21T02:20:06.247Z,1000.62
2017-02-21T02:21:06.184Z,1000.62
2017-02-21T02:22:06.122Z,1000.78
2017-02-21T02:23:06.060Z,1000.65
2017-02-21T02:24:05.997Z,1000.64
2017-02-21T02:25:05.936Z,1000.72
2017-02-21T02:26:05.875Z,1000.71
2017-02-21T02:27:05.811Z,1000.68
2017-02-21T02:28:05.748Z,1000.66
2017-02-21T02:29:05.692Z,1000.69
2017-02-21T02:30:05.873Z,1000.79
2017-02-21T02:31:05.567Z,1000.75
2017-02-21T02:32:05.500Z,1000.78
2017-02-21T02:33:05.439Z,1000.76
2017-02-21T02:34:05.379Z,1000.74
2017-02-21T02:35:05.663Z,1000.76
2017-02-21T02:36:05.259Z,1000.77
2017-02-21T02:37:05.190Z,1000.84
2017-02-21T02:38:05.127Z,1000.89
2017-02-21T02:39:05.064Z,1000.87
2017-02-21T02:40:05.003Z,1000.96
2017-02-21T02:41:04.941Z,1000.92
2017-02-21T02:42:04.879Z,1000.97
2017-02-21T02:43:04.817Z,1000.9
2017-02-21T02:44:04.754Z,1000.92
2017-02-21T02:45:04.694Z,1000.92
2017-02-21T02:46:04.632Z,1000.93
2017-02-21T02:47:04.569Z,1000.96
2017-02-21T02:48:04.507Z,1001
2017-02-21T02:49:04.443Z,1000.91
2017-02-21T02:50:04.387Z,1000.88
2017-02-21T02:51:04.319Z,1000.9
2017-02-21T02:52:04.256Z,1000.82
2017-02-21T02:53:04.194Z,1000.86
2017-02-21T02:54:04.132Z,1000.79
2017-02-21T02:55:04.069Z,1000.92
2017-02-21T02:56:04.008Z,1000.91
2017-02-21T02:57:03.946Z,1000.87
2017-02-21T02:58:03.886Z,1000.91
2017-02-21T02:59:03.822Z,1000.93
2017-02-21T03:00:03.759Z,1000.93
2017-02-21T03:01:03.696Z,1000.9
2017-02-21T03:02:03.637Z,1000.87
2017-02-21T03:03:03.572Z,1000.87
2017-02-21T03:04:03.511Z,1000.92
2017-02-21T03:05:03.447Z,1000.9
2017-02-21T03:06:03.385Z,1001
2017-02-21T03:07:03.323Z,1000.94
2017-02-21T03:08:03.262Z,1000.9
2017-02-21T03:09:03.198Z,1000.94
2017-02-21T03:10:03.137Z,1000.93
2017-02-21T03:11:03.075Z,1000.86
2017-02-21T03:12:03.012Z,1000.94
2017-02-21T03:13:02.953Z,1000.88
2017-02-21T03:14:02.888Z,1000.89
2017-02-21T03:15:02.826Z,1000.85
2017-02-21T03:16:02.765Z,1000.87
2017-02-21T03:17:02.701Z,1000.85
2017-02-21T03:18:02.640Z,1000.86
2017-02-21T03:19:02.577Z,1000.79
2017-02-21T03:20:02.516Z,1000.78
2017-02-21T03:21:02.453Z,1000.86
2017-02-21T03:22:02.390Z,1000.82
2017-02-21T03:23:02.327Z,1000.75
2017-02-21T03:24:02.266Z,1000.86
2017-02-21T03:25:02.204Z,1000.77
2017-02-21T03:26:02.143Z,1000.79
2017-02-21T03:27:02.079Z,1000.78
2017-02-21T03:28:02.016Z,1000.78
2017-02-21T03:29:01.955Z,1000.79
2017-02-21T03:30:01.893Z,1000.84
2017-02-21T03:31:01.831Z,1000.79
2017-02-21T03:32:01.772Z,1000.83
2017-02-21T03:33:01.711Z,1000.79
2017-02-21T03:34:01.643Z,1000.77
2017-02-21T03:35:01.582Z,1000.82
2017-02-21T03:36:01.521Z,1000.82
2017-02-21T03:37:01.457Z,1000.79
2017-02-21T03:38:01.395Z,1000.75
2017-02-21T03:39:01.350Z,1000.8
2017-02-21T03:40:01.272Z,1000.76
2017-02-21T03:41:01.208Z,1000.77
2017-02-21T03:42:01.146Z,1000.81
2017-02-21T03:43:01.084Z,1000.86
2017-02-21T03:44:01.023Z,1000.88
2017-02-21T03:45:00.964Z,1000.87
2017-02-21T03:46:00.896Z,1000.9
2017-02-21T03:47:00.835Z,1000.94
2017-02-21T03:48:00.773Z,1000.93
2017-02-21T03:49:00.711Z,1000.93
2017-02-21T03:50:00.648Z,1000.94
2017-02-21T03:51:00.587Z,1000.9
2017-02-21T03:52:00.524Z,1000.91
2017-02-21T03:53:00.462Z,1000.92
2017-02-21T03:54:00.400Z,1000.96
2017-02-21T03:55:00.337Z,1000.93
2017-02-21T03:56:00.300Z,1000.96
2017-02-21T03:57:00.212Z,1000.99
2017-02-21T03:58:00.152Z,1001.04
2017-02-21T03:59:00.089Z,1000.93
2017-02-21T04:00:00.026Z,1000.94
2017-02-21T04:00:59.966Z,1000.92
2017-02-21T04:01:59.901Z,1000.93
2017-02-21T04:02:59.838Z,1000.94
2017-02-21T04:03:59.776Z,1001.03
2017-02-21T04:04:59.715Z,1000.93
2017-02-21T04:05:59.654Z,1000.99
2017-02-21T04:06:59.590Z,1000.96
2017-02-21T04:07:59.528Z,1000.95
2017-02-21T04:08:59.465Z,1001.01
2017-02-21T04:09:59.405Z,1000.96
2017-02-21T04:10:59.343Z,1000.98
2017-02-21T04:11:59.282Z,1000.98
2017-02-21T04:12:59.218Z,1000.99
2017-02-21T04:13:59.155Z,1000.96
2017-02-21T04:14:59.106Z,1000.92
2017-02-21T04:15:59.033Z,1000.97
2017-02-21T04:16:58.969Z,1000.9
2017-02-21T04:17:58.909Z,1000.97
2017-02-21T04:18:58.846Z,1000.95
2017-02-21T04:19:58.782Z,1000.95
2017-02-21T04:20:58.738Z,1000.94
2017-02-21T04:21:58.658Z,1000.91
2017-02-21T04:22:58.600Z,1000.9
2017-02-21T04:23:58.566Z,1000.98
2017-02-21T04:24:58.472Z,1000.93
2017-02-21T04:25:58.410Z,1000.97
2017-02-21T04:26:58.347Z,1000.94
2017-02-21T04:27:58.286Z,1000.91
2017-02-21T04:28:58.223Z,1000.93
2017-02-21T04:29:58.162Z,1000.88
2017-02-21T04:30:58.098Z,1000.84
2017-02-21T04:31:58.036Z,1000.87
2017-02-21T04:32:57.973Z,1000.9
2017-02-21T04:33:57.912Z,1000.89
2017-02-21T04:34:57.851Z,1000.96
2017-02-21T04:35:57.788Z,1000.94
2017-02-21T04:36:57.727Z,1000.93
2017-02-21T04:37:57.663Z,1000.99
2017-02-21T04:38:57.601Z,1001
2017-02-21T04:39:57.540Z,1001.03
2017-02-21T04:40:57.477Z,1001.03
2017-02-21T04:41:57.414Z,1001.01
2017-02-21T04:42:57.371Z,1001.03
2017-02-21T04:43:57.290Z,1000.98
2017-02-21T04:44:57.229Z,1001.03
2017-02-21T04:45:57.167Z,1001
2017-02-21T04:46:57.104Z,1001.01
2017-02-21T04:47:57.042Z,1001.06
2017-02-21T04:48:56.979Z,1001.04
2017-02-21T04:49:56.918Z,1001.04
2017-02-21T04:50:56.855Z,1001.04
2017-02-21T04:51:56.792Z,1001.06
2017-02-21T04:52:56.730Z,1001.06
2017-02-21T04:53:56.667Z,1001.07
2017-02-21T04:54:56.606Z,1001.1
2017-02-21T04:55:56.544Z,1001.03
2017-02-21T04:56:56.482Z,1001.02
2017-02-21T04:57:56.419Z,1001.03
2017-02-21T04:58:56.356Z,1001.07
2017-02-21T04:59:56.306Z,1001.11
2017-02-21T05:00:56.233Z,1001.55
2017-02-21T05:01:56.170Z,1001.68
2017-02-21T05:02:56.110Z,1001.37
2017-02-21T05:03:56.046Z,1001.34
2017-02-21T05:04:55.985Z,1001.33
2017-02-21T05:05:55.921Z,1001.29
2017-02-21T05:06:55.861Z,1001.33
2017-02-21T05:07:55.800Z,1001.28
2017-02-21T05:08:55.737Z,1001.24
2017-02-21T05:09:55.674Z,1001.28
2017-02-21T05:10:55.962Z,1001.26
2017-02-21T05:11:55.551Z,1001.27
2017-02-21T05:12:55.487Z,1001.27
2017-02-21T05:13:55.425Z,1001.21
2017-02-21T05:14:55.363Z,1001.22
2017-02-21T05:15:55.300Z,1001.21
2017-02-21T05:16:55.239Z,1001.21
2017-02-21T05:17:55.177Z,1001.15
2017-02-21T05:18:55.115Z,1001.1
2017-02-21T05:19:55.052Z,1001.13
2017-02-21T05:20:54.990Z,1001.17
2017-02-21T05:21:54.927Z,1001.14
2017-02-21T05:22:54.875Z,1001.18
2017-02-21T05:23:54.802Z,1001.15
2017-02-21T05:24:54.741Z,1001.19
2017-02-21T05:25:54.678Z,1001.23
2017-02-21T05:26:54.643Z,1001.19
2017-02-21T05:27:54.553Z,1001.16
2017-02-21T05:28:54.492Z,1001.18
2017-02-21T05:29:54.429Z,1001.18
2017-02-21T05:30:54.366Z,1001.19
2017-02-21T05:31:54.304Z,1001.2
2017-02-21T05:32:54.245Z,1001.19
2017-02-21T05:33:54.182Z,1001.16
2017-02-21T05:34:54.118Z,1001.19
2017-02-21T05:35:54.058Z,1001.05
2017-02-21T05:36:53.993Z,1001.01
2017-02-21T05:37:53.931Z,1001.03
2017-02-21T05:38:53.871Z,1001.02
2017-02-21T05:39:53.807Z,1001.02
2017-02-21T05:40:53.746Z,1001.01
2017-02-21T05:41:53.682Z,1001.03
2017-02-21T05:42:53.621Z,1001.07
2017-02-21T05:43:53.560Z,1001.04
2017-02-21T05:44:53.496Z,1001.02
2017-02-21T05:45:53.434Z,1000.94
2017-02-21T05:46:53.373Z,1001.02
2017-02-21T05:47:53.312Z,1000.99
2017-02-21T05:48:53.248Z,1001.02
2017-02-21T05:49:53.186Z,1001.08
2017-02-21T05:50:53.124Z,1001.07
2017-02-21T05:51:53.061Z,1001.04
2017-02-21T05:52:53.005Z,1001.06
2017-02-21T05:53:52.938Z,1001
2017-02-21T05:54:52.875Z,1001
2017-02-21T05:55:52.810Z,1001.07
2017-02-21T05:56:52.749Z,1001.01
2017-02-21T05:57:52.688Z,1001.01
2017-02-21T05:58:52.631Z,1000.98
2017-02-21T05:59:52.564Z,1000.98
2017-02-21T06:00:52.503Z,1001
2017-02-21T06:01:52.438Z,1000.96
2017-02-21T06:02:52.376Z,1001
2017-02-21T06:03:52.314Z,1001.01
2017-02-21T06:04:52.252Z,1001.03
2017-02-21T06:05:52.192Z,1001.06
2017-02-21T06:06:52.127Z,1001.09
2017-02-21T06:07:52.065Z,1001.08
2017-02-21T06:08:52.003Z,1001.11
2017-02-21T06:09:51.941Z,1001.08
2017-02-21T06:10:51.878Z,1001.11
2017-02-21T06:11:51.823Z,1001.14
2017-02-21T06:12:51.754Z,1001.18
2017-02-21T06:13:51.693Z,1001.1
2017-02-21T06:14:51.629Z,1001.14
2017-02-21T06:15:51.717Z,1001.13
2017-02-21T06:16:51.506Z,1001.13
2017-02-21T06:17:51.442Z,1001.16
2017-02-21T06:18:51.381Z,1001.18
2017-02-21T06:19:51.319Z,1001.14
2017-02-21T06:20:51.258Z,1001.16
2017-02-21T06:21:51.193Z,1001.2
2017-02-21T06:22:51.133Z,1001.14
2017-02-21T06:23:51.069Z,1001.15
2017-02-21T06:24:51.008Z,1001.11
2017-02-21T06:25:50.945Z,1001.12
2017-02-21T06:26:50.884Z,1001.16
2017-02-21T06:27:50.822Z,1001.08
2017-02-21T06:28:50.758Z,1001.13
2017-02-21T06:29:50.698Z,1001.11
2017-02-21T06:30:50.633Z,1001.03
2017-02-21T06:31:50.571Z,1001.06
2017-02-21T06:32:50.509Z,1001.09
2017-02-21T06:33:50.476Z,1001.09
2017-02-21T06:34:50.385Z,1001.06
2017-02-21T06:35:50.574Z,1001.04
2017-02-21T06:36:50.261Z,1001.01
2017-02-21T06:37:50.200Z,1001
2017-02-21T06:38:50.135Z,1000.97
2017-02-21T06:39:50.073Z,1001.03
2017-02-21T06:40:50.012Z,1001.03
2017-02-21T06:41:49.948Z,1001.08
2017-02-21T06:42:49.888Z,1001.05
2017-02-21T06:43:49.824Z,1001.01
2017-02-21T06:44:49.761Z,1001.05
2017-02-21T06:45:49.700Z,1001.05
2017-02-21T06:46:49.641Z,1001.06
2017-02-21T06:47:49.575Z,1001.11
2017-02-21T06:48:49.513Z,1001.19
2017-02-21T06:49:49.450Z,1001.17
2017-02-21T06:50:49.417Z,1001.17
2017-02-21T06:51:49.327Z,1001.24
2017-02-21T06:52:49.265Z,1001.23
2017-02-21T06:53:49.202Z,1001.28
2017-02-21T06:54:49.140Z,1001.31
2017-02-21T06:55:49.077Z,1001.32
2017-02-21T06:56:49.014Z,1001.38
2017-02-21T06:57:48.954Z,1001.29
2017-02-21T06:58:48.891Z,1001.27
2017-02-21T06:59:48.828Z,1001.22
2017-02-21T07:00:48.768Z,1001.23
2017-02-21T07:01:48.703Z,1001.2
2017-02-21T07:02:48.640Z,1001.2
2017-02-21T07:03:48.579Z,1001.17
2017-02-21T07:04:48.517Z,1001.09
2017-02-21T07:05:48.454Z,1001.07
2017-02-21T07:06:48.391Z,1001.06
2017-02-21T07:07:48.330Z,1001.08
2017-02-21T07:08:48.270Z,1001.11
2017-02-21T07:09:48.205Z,1001.14
2017-02-21T07:10:48.157Z,1001.14
2017-02-21T07:11:48.081Z,1001.12
2017-02-21T07:12:48.019Z,1001.19
2017-02-21T07:13:47.956Z,1001.17
2017-02-21T07:14:47.894Z,1001.17
2017-02-21T07:15:47.831Z,1001.23
2017-02-21T07:16:47.770Z,1001.2
2017-02-21T07:17:47.709Z,1001.21
2017-02-21T07:18:47.645Z,1001.22
2017-02-21T07:19:47.587Z,1001.17
2017-02-21T07:20:47.531Z,1001.16
2017-02-21T07:21:47.458Z,1001.05
2017-02-21T07:22:47.397Z,1000.98
2017-02-21T07:23:47.336Z,1000.91
2017-02-21T07:24:47.272Z,1000.89
2017-02-21T07:25:47.210Z,1000.81
2017-02-21T07:26:47.149Z,1000.84
2017-02-21T07:27:47.084Z,1000.8
2017-02-21T07:28:47.023Z,1000.87
2017-02-21T07:29:46.963Z,1000.94
2017-02-21T07:30:46.899Z,1000.97
2017-02-21T07:31:46.836Z,1000.99
2017-02-21T07:32:46.775Z,1001
2017-02-21T07:33:46.713Z,1001
2017-02-21T07:34:46.650Z,1001.01
2017-02-21T07:35:46.587Z,1001.04
2017-02-21T07:36:46.526Z,1001.03
2017-02-21T07:37:46.465Z,1001.03
2017-02-21T07:38:46.399Z,1001.04
2017-02-21T07:39:46.339Z,1001.05
2017-02-21T07:40:46.279Z,1001.03
2017-02-21T07:41:46.214Z,1001.04
2017-02-21T07:42:46.153Z,1001.03
2017-02-21T07:43:46.091Z,1001.06
2017-02-21T07:44:46.027Z,1001.01
2017-02-21T07:45:45.964Z,1001.03
2017-02-21T07:46:45.901Z,1001.01
2017-02-21T07:47:45.841Z,1000.99
2017-02-21T07:48:45.780Z,1000.99
2017-02-21T07:49:45.716Z,1001.01
2017-02-21T07:50:45.654Z,1000.97
2017-02-21T07:51:45.592Z,1000.98
2017-02-21T07:52:45.542Z,1000.95
2017-02-21T07:53:45.465Z,1000.94
2017-02-21T07:54:45.406Z,1000.98
2017-02-21T07:55:45.344Z,1000.98
2017-02-21T07:56:45.280Z,1001
2017-02-21T07:57:45.217Z,1001
2017-02-21T07:58:45.158Z,1001.01
2017-02-21T07:59:45.093Z,1001.06
2017-02-21T08:00:45.232Z,1001.09
2017-02-21T08:01:44.968Z,1001.01
2017-02-21T08:02:44.906Z,1001.04
2017-02-21T08:03:44.844Z,1001.04
2017-02-21T08:04:44.782Z,1001.09
2017-02-21T08:05:44.719Z,1001.11
2017-02-21T08:06:44.657Z,1001.15
2017-02-21T08:07:44.596Z,1001.12
2017-02-21T08:08:44.533Z,1001.15
2017-02-21T08:09:44.469Z,1001.18
2017-02-21T08:10:44.410Z,1001.15
2017-02-21T08:11:44.355Z,1001.21
2017-02-21T08:12:44.285Z,1001.16
2017-02-21T08:13:44.224Z,1001.18
2017-02-21T08:14:44.192Z,1001.16
2017-02-21T08:15:44.097Z,1001.17
2017-02-21T08:16:44.034Z,1001.17
2017-02-21T08:17:43.974Z,1001.18
2017-02-21T08:18:43.909Z,1001.2
2017-02-21T08:19:43.847Z,1001.25
2017-02-21T08:20:43.935Z,1001.23
2017-02-21T08:21:43.723Z,1001.22
2017-02-21T08:22:43.664Z,1001.24
2017-02-21T08:23:43.598Z,1001.25
2017-02-21T08:24:43.537Z,1001.25
2017-02-21T08:25:43.474Z,1001.25
2017-02-21T08:26:43.412Z,1001.32
2017-02-21T08:27:43.348Z,1001.32
2017-02-21T08:28:43.286Z,1001.28
2017-02-21T08:29:43.224Z,1001.31
2017-02-21T08:30:43.413Z,1001.26
2017-02-21T08:31:43.101Z,1001.27
2017-02-21T08:32:43.039Z,1001.23
2017-02-21T08:33:42.974Z,1001.16
2017-02-21T08:34:42.913Z,1001.17
2017-02-21T08:35:42.850Z,1001.18
2017-02-21T08:36:42.787Z,1001.21
2017-02-21T08:37:42.725Z,1001.15
2017-02-21T08:38:42.664Z,1001.16
2017-02-21T08:39:42.602Z,1001.17
2017-02-21T08:40:42.889Z,1001.2
2017-02-21T08:41:42.475Z,1001.2
2017-02-21T08:42:42.414Z,1001.11
2017-02-21T08:43:42.353Z,1001.11
2017-02-21T08:44:42.297Z,1001.1
2017-02-21T08:45:42.227Z,1001.09
2017-02-21T08:46:42.166Z,1001.15
2017-02-21T08:47:42.103Z,1001.11
2017-02-21T08:48:42.042Z,1001.15
2017-02-21T08:49:41.980Z,1001.15
2017-02-21T08:50:41.916Z,1001.15
2017-02-21T08:51:41.853Z,1001.16
2017-02-21T08:52:41.791Z,1001.16
2017-02-21T08:53:41.730Z,1001.18
2017-02-21T08:54:41.667Z,1001.2
2017-02-21T08:55:41.604Z,1001.19
2017-02-21T08:56:41.543Z,1001.2
2017-02-21T08:57:41.481Z,1001.24
2017-02-21T08:58:41.422Z,1001.33
2017-02-21T08:59:41.360Z,1001.31
2017-02-21T09:00:41.297Z,1001.37
2017-02-21T09:01:41.231Z,1001.41
2017-02-21T09:02:41.170Z,1001.45
2017-02-21T09:03:41.107Z,1001.54
2017-02-21T09:04:41.053Z,1001.46
2017-02-21T09:05:40.983Z,1001.35
2017-02-21T09:06:40.921Z,1001.49
2017-02-21T09:07:40.858Z,1001.44
2017-02-21T09:08:40.796Z,1001.52
2017-02-21T09:09:40.740Z,1001.49
2017-02-21T09:10:40.687Z,1001.4
2017-02-21T09:11:40.609Z,1001.5
2017-02-21T09:12:40.548Z,1001.52
2017-02-21T09:13:40.483Z,1001.54
2017-02-21T09:14:40.422Z,1001.58
2017-02-21T09:15:40.509Z,1001.74
2017-02-21T09:16:40.298Z,1001.63
2017-02-21T09:17:40.235Z,1001.64
2017-02-21T09:18:40.176Z,1001.65
2017-02-21T09:19:40.112Z,1001.82
2017-02-21T09:20:40.049Z,1001.7
2017-02-21T09:21:39.988Z,1001.72
2017-02-21T09:22:39.925Z,1001.61
2017-02-21T09:23:39.863Z,1001.65
2017-02-21T09:24:39.799Z,1001.68
2017-02-21T09:25:39.988Z,1001.59
2017-02-21T09:26:39.677Z,1001.59
2017-02-21T09:27:39.615Z,1001.64
2017-02-21T09:28:39.551Z,1001.61
2017-02-21T09:29:39.490Z,1001.65
2017-02-21T09:30:39.427Z,1001.66
2017-02-21T09:31:39.454Z,1001.64
2017-02-21T09:32:39.304Z,1001.72
2017-02-21T09:33:39.241Z,1001.76
2017-02-21T09:34:39.181Z,1001.76
2017-02-21T09:35:39.117Z,1001.74
2017-02-21T09:36:39.061Z,1001.88
2017-02-21T09:37:38.994Z,1001.86
2017-02-21T09:38:38.931Z,1001.86
2017-02-21T09:39:38.870Z,1001.92
2017-02-21T09:40:39.109Z,1001.94
2017-02-21T09:41:38.746Z,1001.91
2017-02-21T09:42:38.684Z,1001.91
2017-02-21T09:43:38.622Z,1001.92
2017-02-21T09:44:38.561Z,1002.02
2017-02-21T09:45:38.499Z,1002.06
2017-02-21T09:46:38.435Z,1002.03
2017-02-21T09:47:38.375Z,1002.05
2017-02-21T09:48:38.312Z,1002.17
2017-02-21T09:49:38.249Z,1002.05
2017-02-21T09:50:38.189Z,1002.08
2017-02-21T09:51:38.150Z,1002.08
2017-02-21T09:52:38.065Z,1002.2
2017-02-21T09:53:38.003Z,1002.18
2017-02-21T09:54:37.941Z,1002.15
2017-02-21T09:55:37.880Z,1002.35
2017-02-21T09:56:37.817Z,1002.38
2017-02-21T09:57:37.756Z,1002.44
2017-02-21T09:58:37.693Z,1002.44
2017-02-21T09:59:37.633Z,1002.47
2017-02-21T10:00:37.820Z,1002.46
2017-02-21T10:01:37.508Z,1002.45
2017-02-21T10:02:37.446Z,1002.38
2017-02-21T10:03:37.386Z,1002.42
2017-02-21T10:04:37.322Z,1002.51
2017-02-21T10:05:37.262Z,1002.58
2017-02-21T10:06:37.199Z,1002.62
2017-02-21T10:07:37.136Z,1002.67
2017-02-21T10:08:37.076Z,1002.73
2017-02-21T10:09:37.013Z,1002.73
2017-02-21T10:10:36.951Z,1002.87
2017-02-21T10:11:36.894Z,1002.77
2017-02-21T10:12:36.835Z,1002.94
2017-02-21T10:13:36.769Z,1002.85
2017-02-21T10:14:36.707Z,1002.91
2017-02-21T10:15:36.894Z,1002.91
2017-02-21T10:16:36.583Z,1002.9
2017-02-21T10:17:36.521Z,1002.98
2017-02-21T10:18:36.459Z,1003
2017-02-21T10:19:36.401Z,1002.84
2017-02-21T10:20:36.585Z,1002.9
2017-02-21T10:21:36.281Z,1002.92
2017-02-21T10:22:36.212Z,1002.95
2017-02-21T10:23:36.151Z,1002.98
2017-02-21T10:24:36.089Z,1003.02
2017-02-21T10:25:36.279Z,1003.03
2017-02-21T10:26:35.965Z,1003.01
2017-02-21T10:27:35.904Z,1003.03
2017-02-21T10:28:35.842Z,1003.05
2017-02-21T10:29:35.781Z,1003.04
2017-02-21T10:30:35.719Z,1003.09
2017-02-21T10:31:35.658Z,1003.08
2017-02-21T10:32:35.596Z,1003.16
2017-02-21T10:33:35.533Z,1003.08
2017-02-21T10:34:35.472Z,1003.15
2017-02-21T10:35:35.659Z,1003.14
2017-02-21T10:36:35.350Z,1003.13
2017-02-21T10:37:35.286Z,1003.17
2017-02-21T10:38:35.226Z,1003.23
2017-02-21T10:39:35.164Z,1003.23
2017-02-21T10:40:35.252Z,1003.18
2017-02-21T10:41:35.043Z,1003.24
2017-02-21T10:42:34.978Z,1003.24
2017-02-21T10:43:34.917Z,1003.23
2017-02-21T10:44:34.861Z,1003.26
2017-02-21T10:45:34.794Z,1003.21
2017-02-21T10:46:34.731Z,1003.03
2017-02-21T10:47:34.670Z,1003.03
2017-02-21T10:48:34.607Z,1002.98
2017-02-21T10:49:34.545Z,1003.1
2017-02-21T10:50:34.734Z,1003.21
2017-02-21T10:51:34.421Z,1003.21
2017-02-21T10:52:34.360Z,1002.96
2017-02-21T10:53:34.300Z,1002.99
2017-02-21T10:54:34.237Z,1002.92
2017-02-21T10:55:34.525Z,1002.94
2017-02-21T10:56:34.113Z,1002.91
2017-02-21T10:57:34.052Z,1002.9
2017-02-21T10:58:33.990Z,1002.83
2017-02-21T10:59:33.929Z,1002.9
2017-02-21T11:00:33.876Z,1002.84
2017-02-21T11:01:33.806Z,1002.89
2017-02-21T11:02:33.743Z,1002.87
2017-02-21T11:03:33.681Z,1002.88
2017-02-21T11:04:33.620Z,1002.83
2017-02-21T11:05:33.558Z,1002.83
2017-02-21T11:06:33.497Z,1002.87
2017-02-21T11:07:33.436Z,1002.92
2017-02-21T11:08:33.374Z,1002.86
2017-02-21T11:09:33.314Z,1002.89
2017-02-21T11:10:33.649Z,1002.88
2017-02-21T11:11:33.189Z,1002.79
2017-02-21T11:12:33.126Z,1002.82
2017-02-21T11:13:33.064Z,1002.8
2017-02-21T11:14:33.003Z,1002.87
2017-02-21T11:15:33.292Z,1002.92
2017-02-21T11:16:32.879Z,1002.97
2017-02-21T11:17:32.818Z,1002.94
2017-02-21T11:18:32.756Z,1003
2017-02-21T11:19:32.695Z,1002.95
2017-02-21T11:20:32.634Z,1002.93
2017-02-21T11:21:32.570Z,1002.97
2017-02-21T11:22:32.509Z,1002.99
2017-02-21T11:23:32.449Z,1002.99
2017-02-21T11:24:32.408Z,1003.04
2017-02-21T11:25:32.674Z,1003.07
2017-02-21T11:26:32.263Z,1003.05
2017-02-21T11:27:32.201Z,1003.13
2017-02-21T11:28:32.140Z,1003.09
2017-02-21T11:29:32.077Z,1003.11
2017-02-21T11:30:32.365Z,1003.14
2017-02-21T11:31:31.954Z,1003.14
2017-02-21T11:32:31.891Z,1003.15
2017-02-21T11:33:31.829Z,1003.11
2017-02-21T11:34:31.769Z,1003.04
2017-02-21T11:35:31.956Z,1003.09
2017-02-21T11:36:31.734Z,1003.11
2017-02-21T11:37:31.583Z,1003.14
2017-02-21T11:38:31.563Z,1003.15
2017-02-21T11:39:31.459Z,1003.21
2017-02-21T11:40:31.399Z,1003.2
2017-02-21T11:41:31.336Z,1003.24
2017-02-21T11:42:31.274Z,1003.33
2017-02-21T11:43:31.211Z,1003.28
2017-02-21T11:44:31.151Z,1003.33
2017-02-21T11:45:31.088Z,1003.21
2017-02-21T11:46:31.026Z,1003.3
2017-02-21T11:47:30.965Z,1003.35
2017-02-21T11:48:30.905Z,1003.36
2017-02-21T11:49:30.842Z,1003.23
2017-02-21T11:50:30.837Z,1003.45
2017-02-21T11:51:30.721Z,1003.37
2017-02-21T11:52:30.657Z,1003.28
2017-02-21T11:53:30.597Z,1003.21
2017-02-21T11:54:30.533Z,1003.23
2017-02-21T11:55:30.822Z,1003.33
2017-02-21T11:56:30.409Z,1003.35
2017-02-21T11:57:30.348Z,1003.33
2017-02-21T11:58:30.288Z,1003.26
2017-02-21T11:59:30.223Z,1003.23
2017-02-21T12:00:30.512Z,1003.29
2017-02-21T12:01:30.104Z,1003.28
2017-02-21T12:02:30.039Z,1003.24
2017-02-21T12:03:29.978Z,1003.28
2017-02-21T12:04:29.915Z,1003.36
2017-02-21T12:05:30.003Z,1003.25
2017-02-21T12:06:29.790Z,1003.25
2017-02-21T12:07:29.731Z,1003.31
2017-02-21T12:08:29.666Z,1003.26